sensor_id;sensor_type;location;lat;lon;timestamp;pressure;altitude;pressure_sealevel;temperature;humidity
48614;BME280;34408;51.426;5.444;2023-04-19T00:01:30;102565.38;;;12.07;56.27
48614;BME280;34408;51.426;5.444;2023-04-19T00:03:58;102563.72;;;12.06;56.16
48614;BME280;34408;51.426;5.444;2023-04-19T00:06:26;102552.09;;;12.05;56.50
48614;BME280;34408;51.426;5.444;2023-04-19T00:08:55;102550.44;;;12.04;56.23
48614;BME280;34408;51.426;5.444;2023-04-19T00:11:23;102554.16;;;12.03;56.43
48614;BME280;34408;51.426;5.444;2023-04-19T00:13:51;102546.06;;;12.03;56.49
48614;BME280;34408;51.426;5.444;2023-04-19T00:16:20;102553.31;;;12.03;56.72
48614;BME280;34408;51.426;5.444;2023-04-19T00:18:48;102545.22;;;12.03;56.64
48614;BME280;34408;51.426;5.444;2023-04-19T00:21:16;102532.06;;;11.93;56.73
48614;BME280;34408;51.426;5.444;2023-04-19T00:23:43;102556.19;;;12.01;56.82
48614;BME280;34408;51.426;5.444;2023-04-19T00:26:11;102552.47;;;12.02;56.77
48614;BME280;34408;51.426;5.444;2023-04-19T00:28:41;102550.63;;;12.03;56.64
48614;BME280;34408;51.426;5.444;2023-04-19T00:31:08;102547.09;;;12.02;56.81
48614;BME280;34408;51.426;5.444;2023-04-19T00:33:38;102557.69;;;12.04;56.61
48614;BME280;34408;51.426;5.444;2023-04-19T00:36:06;102542.53;;;12.03;56.97
48614;BME280;34408;51.426;5.444;2023-04-19T00:38:34;102553.50;;;12.01;56.72
48614;BME280;34408;51.426;5.444;2023-04-19T00:41:01;102541.25;;;11.99;57.05
48614;BME280;34408;51.426;5.444;2023-04-19T00:43:29;102548.94;;;12.02;56.82
48614;BME280;34408;51.426;5.444;2023-04-19T00:45:57;102544.41;;;12.02;56.81
48614;BME280;34408;51.426;5.444;2023-04-19T00:48:25;102542.53;;;12.03;57.04
48614;BME280;34408;51.426;5.444;2023-04-19T00:50:54;102539.84;;;12.03;56.76
48614;BME280;34408;51.426;5.444;2023-04-19T00:53:22;102543.56;;;12.02;56.78
48614;BME280;34408;51.426;5.444;2023-04-19T00:55:50;102544.41;;;12.02;56.95
48614;BME280;34408;51.426;5.444;2023-04-19T00:58:17;102549.78;;;12.02;57.10
48614;BME280;34408;51.426;5.444;2023-04-19T01:00:45;102543.56;;;12.02;56.86
48614;BME280;34408;51.426;5.444;2023-04-19T01:03:13;102545.22;;;12.03;56.72
48614;BME280;34408;51.426;5.444;2023-04-19T01:05:42;102541.69;;;12.02;57.23
48614;BME280;34408;51.426;5.444;2023-04-19T01:08:11;102546.25;;;12.02;57.15
48614;BME280;34408;51.426;5.444;2023-04-19T01:10:39;102543.56;;;12.02;57.09
48614;BME280;34408;51.426;5.444;2023-04-19T01:13:07;102542.72;;;12.01;57.16
48614;BME280;34408;51.426;5.444;2023-04-19T01:15:35;102549.13;;;12.00;57.09
48614;BME280;34408;51.426;5.444;2023-04-19T01:18:03;102539.38;;;11.99;57.08
48614;BME280;34408;51.426;5.444;2023-04-19T01:20:31;102546.63;;;11.99;57.32
48614;BME280;34408;51.426;5.444;2023-04-19T01:23:00;102540.22;;;12.00;57.36
48614;BME280;34408;51.426;5.444;2023-04-19T01:25:28;102548.31;;;12.00;57.19
48614;BME280;34408;51.426;5.444;2023-04-19T01:27:55;102540.22;;;12.00;57.11
48614;BME280;34408;51.426;5.444;2023-04-19T01:30:23;102549.13;;;12.00;57.34
48614;BME280;34408;51.426;5.444;2023-04-19T01:32:51;102544.78;;;11.99;57.33
48614;BME280;34408;51.426;5.444;2023-04-19T01:35:19;102541.25;;;11.99;57.35
48614;BME280;34408;51.426;5.444;2023-04-19T01:37:46;102546.63;;;11.99;57.38
48614;BME280;34408;51.426;5.444;2023-04-19T01:40:16;102540.41;;;11.98;57.29
48614;BME280;34408;51.426;5.444;2023-04-19T01:42:44;102541.25;;;11.99;57.13
48614;BME280;34408;51.426;5.444;2023-04-19T01:45:12;102541.25;;;11.99;57.59
48614;BME280;34408;51.426;5.444;2023-04-19T01:47:39;102544.13;;;11.97;57.60
48614;BME280;34408;51.426;5.444;2023-04-19T01:50:08;102540.41;;;11.98;57.35
48614;BME280;34408;51.426;5.444;2023-04-19T01:52:36;102539.75;;;11.96;57.52
48614;BME280;34408;51.426;5.444;2023-04-19T01:55:04;102533.53;;;11.96;57.49
48614;BME280;34408;51.426;5.444;2023-04-19T01:57:33;102531.69;;;11.96;57.61
48614;BME280;34408;51.426;5.444;2023-04-19T02:00:01;102525.84;;;11.93;57.64
48614;BME280;34408;51.426;5.444;2023-04-19T02:02:29;102526.28;;;11.96;57.66
48614;BME280;34408;51.426;5.444;2023-04-19T02:04:56;102530.00;;;11.95;57.60
48614;BME280;34408;51.426;5.444;2023-04-19T02:07:24;102527.69;;;11.92;57.98
48614;BME280;34408;51.426;5.444;2023-04-19T02:09:52;102521.28;;;11.93;58.02
48614;BME280;34408;51.426;5.444;2023-04-19T02:12:20;102526.66;;;11.93;57.78
48614;BME280;34408;51.426;5.444;2023-04-19T02:14:49;102521.28;;;11.93;57.90
48614;BME280;34408;51.426;5.444;2023-04-19T02:17:16;102521.09;;;11.95;58.07
48614;BME280;34408;51.426;5.444;2023-04-19T02:19:44;102517.56;;;11.94;57.98
48614;BME280;34408;51.426;5.444;2023-04-19T02:22:12;102523.78;;;11.95;58.12
48614;BME280;34408;51.426;5.444;2023-04-19T02:24:39;102524.63;;;11.95;58.19
48614;BME280;34408;51.426;5.444;2023-04-19T02:27:07;102515.50;;;11.96;58.12
48614;BME280;34408;51.426;5.444;2023-04-19T02:29:36;102510.31;;;11.95;58.21
48614;BME280;34408;51.426;5.444;2023-04-19T02:32:06;102508.47;;;11.95;58.23
48614;BME280;34408;51.426;5.444;2023-04-19T02:34:33;102514.69;;;11.96;58.10
48614;BME280;34408;51.426;5.444;2023-04-19T02:37:01;102510.13;;;11.96;57.94
48614;BME280;34408;51.426;5.444;2023-04-19T02:39:30;102508.66;;;11.94;57.91
48614;BME280;34408;51.426;5.444;2023-04-19T02:41:58;102505.75;;;11.95;58.12
48614;BME280;34408;51.426;5.444;2023-04-19T02:44:26;102511.16;;;11.95;58.19
48614;BME280;34408;51.426;5.444;2023-04-19T02:46:54;102508.47;;;11.95;58.54
48614;BME280;34408;51.426;5.444;2023-04-19T02:49:24;102511.16;;;11.95;58.40
48614;BME280;34408;51.426;5.444;2023-04-19T02:51:52;102513.00;;;11.95;58.41
48614;BME280;34408;51.426;5.444;2023-04-19T02:54:19;102513.00;;;11.95;58.86
48614;BME280;34408;51.426;5.444;2023-04-19T02:56:47;102521.09;;;11.95;58.73
48614;BME280;34408;51.426;5.444;2023-04-19T02:59:15;102505.94;;;11.94;58.47
48614;BME280;34408;51.426;5.444;2023-04-19T03:01:43;102509.47;;;11.94;58.48
48614;BME280;34408;51.426;5.444;2023-04-19T03:04:10;102515.06;;;11.93;58.56
48614;BME280;34408;51.426;5.444;2023-04-19T03:06:40;102510.31;;;11.95;58.77
48614;BME280;34408;51.426;5.444;2023-04-19T03:09:09;102508.84;;;11.92;58.90
48614;BME280;34408;51.426;5.444;2023-04-19T03:11:38;102509.66;;;11.93;58.88
48614;BME280;34408;51.426;5.444;2023-04-19T03:14:05;102514.88;;;11.94;58.98
48614;BME280;34408;51.426;5.444;2023-04-19T03:16:33;102502.63;;;11.92;59.04
48614;BME280;34408;51.426;5.444;2023-04-19T03:19:02;102505.31;;;11.92;59.17
48614;BME280;34408;51.426;5.444;2023-04-19T03:21:29;102502.81;;;11.90;58.71
48614;BME280;34408;51.426;5.444;2023-04-19T03:23:58;102495.75;;;11.89;58.81
48614;BME280;34408;51.426;5.444;2023-04-19T03:26:26;102503.81;;;11.89;59.14
48614;BME280;34408;51.426;5.444;2023-04-19T03:28:54;102494.06;;;11.88;58.93
48614;BME280;34408;51.426;5.444;2023-04-19T03:31:21;102495.75;;;11.89;59.02
48614;BME280;34408;51.426;5.444;2023-04-19T03:33:49;102496.78;;;11.88;59.31
48614;BME280;34408;51.426;5.444;2023-04-19T03:36:17;102499.47;;;11.88;58.86
48614;BME280;34408;51.426;5.444;2023-04-19T03:38:45;102479.06;;;11.79;59.25
48614;BME280;34408;51.426;5.444;2023-04-19T03:41:22;102489.06;;;11.85;59.25
48614;BME280;34408;51.426;5.444;2023-04-19T03:43:50;102487.84;;;11.88;59.13
48614;BME280;34408;51.426;5.444;2023-04-19T03:46:18;102495.09;;;11.87;59.14
48614;BME280;34408;51.426;5.444;2023-04-19T03:48:46;102488.03;;;11.86;59.36
48614;BME280;34408;51.426;5.444;2023-04-19T03:51:14;102488.88;;;11.87;59.27
48614;BME280;34408;51.426;5.444;2023-04-19T03:53:42;102488.03;;;11.86;59.29
48614;BME280;34408;51.426;5.444;2023-04-19T03:56:10;102487.22;;;11.86;59.27
48614;BME280;34408;51.426;5.444;2023-04-19T03:58:39;102478.28;;;11.85;59.31
48614;BME280;34408;51.426;5.444;2023-04-19T04:01:16;102489.91;;;11.86;59.64
48614;BME280;34408;51.426;5.444;2023-04-19T04:03:44;102494.44;;;11.85;59.24
48614;BME280;34408;51.426;5.444;2023-04-19T04:06:12;102492.59;;;11.86;59.41
48614;BME280;34408;51.426;5.444;2023-04-19T04:08:40;102497.97;;;11.86;59.63
48614;BME280;34408;51.426;5.444;2023-04-19T04:11:08;102498.19;;;11.84;59.41
48614;BME280;34408;51.426;5.444;2023-04-19T04:13:36;102493.63;;;11.85;59.54
48614;BME280;34408;51.426;5.444;2023-04-19T04:16:05;102495.47;;;11.84;59.56
48614;BME280;34408;51.426;5.444;2023-04-19T04:18:33;102497.34;;;11.84;59.70
48614;BME280;34408;51.426;5.444;2023-04-19T04:21:01;102499.19;;;11.83;59.71
48614;BME280;34408;51.426;5.444;2023-04-19T04:23:28;102497.53;;;11.82;59.96
48614;BME280;34408;51.426;5.444;2023-04-19T04:25:56;102498.56;;;11.81;59.71
48614;BME280;34408;51.426;5.444;2023-04-19T04:28:26;102500.22;;;11.82;59.71
48614;BME280;34408;51.426;5.444;2023-04-19T04:30:54;102498.38;;;11.83;59.64
48614;BME280;34408;51.426;5.444;2023-04-19T04:33:25;102498.38;;;11.83;59.59
48614;BME280;34408;51.426;5.444;2023-04-19T04:35:52;102502.91;;;11.82;59.62
48614;BME280;34408;51.426;5.444;2023-04-19T04:38:21;102502.09;;;11.82;60.01
48614;BME280;34408;51.426;5.444;2023-04-19T04:40:51;102499.56;;;11.80;59.75
48614;BME280;34408;51.426;5.444;2023-04-19T04:43:20;102500.59;;;11.79;59.76
48614;BME280;34408;51.426;5.444;2023-04-19T04:45:48;102498.44;;;11.74;59.97
48614;BME280;34408;51.426;5.444;2023-04-19T04:48:16;102498.94;;;11.78;59.66
48614;BME280;34408;51.426;5.444;2023-04-19T04:50:45;102507.84;;;11.79;59.59
48614;BME280;34408;51.426;5.444;2023-04-19T04:53:13;102507.84;;;11.79;59.88
48614;BME280;34408;51.426;5.444;2023-04-19T04:55:41;102502.72;;;11.69;59.96
48614;BME280;34408;51.426;5.444;2023-04-19T04:58:08;102505.69;;;11.74;59.84
48614;BME280;34408;51.426;5.444;2023-04-19T05:00:36;102516.28;;;11.76;59.84
48614;BME280;34408;51.426;5.444;2023-04-19T05:03:04;102512.94;;;11.73;60.08
48614;BME280;34408;51.426;5.444;2023-04-19T05:05:32;102527.41;;;11.72;60.08
48614;BME280;34408;51.426;5.444;2023-04-19T05:08:01;102516.66;;;11.72;59.86
48614;BME280;34408;51.426;5.444;2023-04-19T05:10:29;102516.66;;;11.72;60.09
48614;BME280;34408;51.426;5.444;2023-04-19T05:12:56;102522.03;;;11.72;59.93
48614;BME280;34408;51.426;5.444;2023-04-19T05:15:24;102525.75;;;11.71;59.85
48614;BME280;34408;51.426;5.444;2023-04-19T05:17:52;102520.38;;;11.71;59.97
48614;BME280;34408;51.426;5.444;2023-04-19T05:20:20;102526.59;;;11.72;59.84
48614;BME280;34408;51.426;5.444;2023-04-19T05:22:48;102528.63;;;11.70;59.67
48614;BME280;34408;51.426;5.444;2023-04-19T05:25:17;102526.78;;;11.70;59.52
48614;BME280;34408;51.426;5.444;2023-04-19T05:27:44;102525.09;;;11.69;59.75
48614;BME280;34408;51.426;5.444;2023-04-19T05:30:12;102520.75;;;11.68;59.44
48614;BME280;34408;51.426;5.444;2023-04-19T05:32:40;102528.00;;;11.68;59.32
48614;BME280;34408;51.426;5.444;2023-04-19T05:35:09;102525.94;;;11.70;59.48
48614;BME280;34408;51.426;5.444;2023-04-19T05:37:37;102527.63;;;11.71;59.13
48614;BME280;34408;51.426;5.444;2023-04-19T05:40:06;102520.56;;;11.70;59.16
48614;BME280;34408;51.426;5.444;2023-04-19T05:42:37;102528.44;;;11.71;59.31
48614;BME280;34408;51.426;5.444;2023-04-19T05:45:05;102526.41;;;11.73;59.10
48614;BME280;34408;51.426;5.444;2023-04-19T05:47:33;102536.16;;;11.74;58.86
48614;BME280;34408;51.426;5.444;2023-04-19T05:50:01;102528.81;;;11.68;59.08
48614;BME280;34408;51.426;5.444;2023-04-19T05:52:29;102521.75;;;11.67;59.01
48614;BME280;34408;51.426;5.444;2023-04-19T05:54:57;102525.22;;;11.61;58.72
48614;BME280;34408;51.426;5.444;2023-04-19T05:57:24;102528.00;;;11.68;58.72
48614;BME280;34408;51.426;5.444;2023-04-19T05:59:54;102522.22;;;11.71;58.83
48614;BME280;34408;51.426;5.444;2023-04-19T06:02:21;102529.66;;;11.69;58.73
48614;BME280;34408;51.426;5.444;2023-04-19T06:04:49;102528.63;;;11.70;58.63
48614;BME280;34408;51.426;5.444;2023-04-19T06:07:17;102532.16;;;11.70;58.61
48614;BME280;34408;51.426;5.444;2023-04-19T06:09:58;102531.78;;;11.73;58.36
48614;BME280;34408;51.426;5.444;2023-04-19T06:12:26;102529.75;;;11.76;58.63
48614;BME280;34408;51.426;5.444;2023-04-19T06:14:55;102536.25;;;11.81;58.52
48614;BME280;34408;51.426;5.444;2023-04-19T06:17:23;102530.69;;;11.83;58.26
48614;BME280;34408;51.426;5.444;2023-04-19T06:19:51;102542.13;;;11.85;58.30
48614;BME280;34408;51.426;5.444;2023-04-19T06:22:20;102537.56;;;11.85;58.10
48614;BME280;34408;51.426;5.444;2023-04-19T06:24:48;102541.72;;;11.88;58.16
48614;BME280;34408;51.426;5.444;2023-04-19T06:27:16;102545.25;;;11.88;58.09
48614;BME280;34408;51.426;5.444;2023-04-19T06:29:43;102551.69;;;11.87;58.08
48614;BME280;34408;51.426;5.444;2023-04-19T06:32:13;102540.06;;;11.87;58.27
48614;BME280;34408;51.426;5.444;2023-04-19T06:34:41;102531.97;;;11.87;58.23
48614;BME280;34408;51.426;5.444;2023-04-19T06:37:08;102538.22;;;11.87;57.97
48614;BME280;34408;51.426;5.444;2023-04-19T06:39:36;102530.13;;;11.87;58.04
48614;BME280;34408;51.426;5.444;2023-04-19T06:42:04;102537.19;;;11.88;57.76
48614;BME280;34408;51.426;5.444;2023-04-19T06:44:32;102538.03;;;11.89;57.88
48614;BME280;34408;51.426;5.444;2023-04-19T06:47:00;102517.41;;;11.81;57.82
48614;BME280;34408;51.426;5.444;2023-04-19T06:49:29;102528.25;;;11.88;57.66
48614;BME280;34408;51.426;5.444;2023-04-19T06:51:58;102528.91;;;11.90;57.62
48614;BME280;34408;51.426;5.444;2023-04-19T06:54:26;102534.94;;;11.92;57.92
48614;BME280;34408;51.426;5.444;2023-04-19T06:56:55;102530.00;;;11.95;57.60
48614;BME280;34408;51.426;5.444;2023-04-19T06:59:23;102533.34;;;11.97;57.52
48614;BME280;34408;51.426;5.444;2023-04-19T07:01:53;102523.41;;;11.98;57.47
48614;BME280;34408;51.426;5.444;2023-04-19T07:04:23;102525.91;;;11.99;57.61
48614;BME280;34408;51.426;5.444;2023-04-19T07:06:53;102529.06;;;12.03;57.25
48614;BME280;34408;51.426;5.444;2023-04-19T07:09:21;102529.50;;;12.07;56.73
48614;BME280;34408;51.426;5.444;2023-04-19T07:11:48;102530.16;;;12.09;56.95
48614;BME280;34408;51.426;5.444;2023-04-19T07:14:17;102529.13;;;12.10;56.42
48614;BME280;34408;51.426;5.444;2023-04-19T07:16:45;102525.22;;;12.12;56.74
48614;BME280;34408;51.426;5.444;2023-04-19T07:19:12;102528.53;;;12.14;56.48
48614;BME280;34408;51.426;5.444;2023-04-19T07:21:40;102524.81;;;12.15;56.02
48614;BME280;34408;51.426;5.444;2023-04-19T07:24:09;102527.31;;;12.17;55.37
48614;BME280;34408;51.426;5.444;2023-04-19T07:26:37;102524.44;;;12.18;55.87
48614;BME280;34408;51.426;5.444;2023-04-19T07:29:05;102530.28;;;12.22;56.11
48614;BME280;34408;51.426;5.444;2023-04-19T07:31:33;102529.88;;;12.25;55.89
48614;BME280;34408;51.426;5.444;2023-04-19T07:34:00;102541.50;;;12.25;55.68
48614;BME280;34408;51.426;5.444;2023-04-19T07:36:28;102528.03;;;12.25;55.93
48614;BME280;34408;51.426;5.444;2023-04-19T07:38:57;102523.66;;;12.24;55.62
48614;BME280;34408;51.426;5.444;2023-04-19T07:41:26;102523.66;;;12.24;55.60
48614;BME280;34408;51.426;5.444;2023-04-19T07:43:54;102532.78;;;12.23;55.37
48614;BME280;34408;51.426;5.444;2023-04-19T07:46:22;102515.31;;;12.19;55.34
48614;BME280;34408;51.426;5.444;2023-04-19T07:48:49;102529.44;;;12.21;55.23
48614;BME280;34408;51.426;5.444;2023-04-19T07:51:17;102527.75;;;12.20;55.69
48614;BME280;34408;51.426;5.444;2023-04-19T07:53:46;102518.00;;;12.19;55.59
48614;BME280;34408;51.426;5.444;2023-04-19T07:56:14;102527.13;;;12.18;55.32
48614;BME280;34408;51.426;5.444;2023-04-19T07:58:43;102527.97;;;12.19;55.11
48614;BME280;34408;51.426;5.444;2023-04-19T08:01:22;102521.72;;;12.18;55.14
48614;BME280;34408;51.426;5.444;2023-04-19T08:03:50;102514.66;;;12.17;55.00
48614;BME280;34408;51.426;5.444;2023-04-19T08:06:18;102519.09;;;12.25;54.80
48614;BME280;34408;51.426;5.444;2023-04-19T08:08:47;102517.38;;;12.38;54.55
48614;BME280;34408;51.426;5.444;2023-04-19T08:11:15;102522.13;;;12.58;54.29
48614;BME280;34408;51.426;5.444;2023-04-19T08:13:44;102502.75;;;12.76;53.57
48614;BME280;34408;51.426;5.444;2023-04-19T08:16:32;102513.00;;;13.15;52.83
48614;BME280;34408;51.426;5.444;2023-04-19T08:19:19;102514.84;;;13.42;52.47
48614;BME280;34408;51.426;5.444;2023-04-19T08:21:47;102506.25;;;13.66;51.38
48614;BME280;34408;51.426;5.444;2023-04-19T08:24:15;102502.78;;;13.86;50.28
48614;BME280;34408;51.426;5.444;2023-04-19T08:26:43;102506.97;;;14.08;50.12
48614;BME280;34408;51.426;5.444;2023-04-19T08:29:20;102494.75;;;14.32;49.95
48614;BME280;34408;51.426;5.444;2023-04-19T08:31:48;102505.75;;;14.30;49.68
48614;BME280;34408;51.426;5.444;2023-04-19T08:34:16;102506.19;;;14.27;49.63
48614;BME280;34408;51.426;5.444;2023-04-19T08:36:44;102506.56;;;14.11;50.40
48614;BME280;34408;51.426;5.444;2023-04-19T08:39:26;102495.69;;;13.91;50.78
48614;BME280;34408;51.426;5.444;2023-04-19T08:42:02;102502.31;;;13.69;50.75
48614;BME280;34408;51.426;5.444;2023-04-19T08:44:40;102494.94;;;13.50;51.49
48614;BME280;34408;51.426;5.444;2023-04-19T08:47:31;102493.84;;;13.38;51.86
48614;BME280;34408;51.426;5.444;2023-04-19T08:50:00;102491.91;;;13.25;51.75
48614;BME280;34408;51.426;5.444;2023-04-19T08:52:50;102493.94;;;13.16;52.18
48614;BME280;34408;51.426;5.444;2023-04-19T08:55:27;102496.81;;;13.15;52.59
48614;BME280;34408;51.426;5.444;2023-04-19T08:57:55;102491.16;;;13.10;52.63
48614;BME280;34408;51.426;5.444;2023-04-19T09:00:25;102494.25;;;13.07;52.62
48614;BME280;34408;51.426;5.444;2023-04-19T09:02:53;102497.56;;;13.02;52.43
48614;BME280;34408;51.426;5.444;2023-04-19T09:05:21;102492.56;;;12.99;51.76
48614;BME280;34408;51.426;5.444;2023-04-19T09:07:49;102484.22;;;12.94;51.82
48614;BME280;34408;51.426;5.444;2023-04-19T09:10:19;102471.06;;;12.84;51.54
48614;BME280;34408;51.426;5.444;2023-04-19T09:12:59;102483.97;;;12.89;51.33
48614;BME280;34408;51.426;5.444;2023-04-19T09:15:39;102475.84;;;12.82;51.08
48614;BME280;34408;51.426;5.444;2023-04-19T09:18:11;102491.22;;;12.88;50.99
48614;BME280;34408;51.426;5.444;2023-04-19T09:20:41;102479.16;;;12.84;50.22
48614;BME280;34408;51.426;5.444;2023-04-19T09:23:11;102487.69;;;12.88;50.66
48614;BME280;34408;51.426;5.444;2023-04-19T09:25:39;102475.25;;;12.87;51.07
48614;BME280;34408;51.426;5.444;2023-04-19T09:28:27;102472.16;;;12.90;50.98
48614;BME280;34408;51.426;5.444;2023-04-19T09:30:57;102483.78;;;12.90;50.64
48614;BME280;34408;51.426;5.444;2023-04-19T09:33:37;102487.50;;;12.89;49.94
48614;BME280;34408;51.426;5.444;2023-04-19T09:36:06;102479.41;;;12.89;49.88
48614;BME280;34408;51.426;5.444;2023-04-19T09:38:45;102482.94;;;12.90;49.64
48614;BME280;34408;51.426;5.444;2023-04-19T09:41:14;102490.44;;;12.94;49.34
48614;BME280;34408;51.426;5.444;2023-04-19T09:43:42;102489.22;;;12.97;49.46
48614;BME280;34408;51.426;5.444;2023-04-19T09:46:32;102469.69;;;12.95;49.58
48614;BME280;34408;51.426;5.444;2023-04-19T09:49:15;102487.16;;;12.99;49.17
48614;BME280;34408;51.426;5.444;2023-04-19T09:52:03;102486.13;;;13.00;49.52
48614;BME280;34408;51.426;5.444;2023-04-19T09:54:32;102476.41;;;13.06;49.51
48614;BME280;34408;51.426;5.444;2023-04-19T09:57:00;102472.88;;;13.05;49.14
48614;BME280;34408;51.426;5.444;2023-04-19T09:59:28;102463.94;;;13.04;48.98
48614;BME280;34408;51.426;5.444;2023-04-19T10:01:58;102481.59;;;13.07;48.69
48614;BME280;34408;51.426;5.444;2023-04-19T10:04:28;102472.00;;;12.98;47.02
48614;BME280;34408;51.426;5.444;2023-04-19T10:07:16;102474.13;;;13.09;49.90
48614;BME280;34408;51.426;5.444;2023-04-19T10:09:57;102477.06;;;13.14;50.62
48614;BME280;34408;51.426;5.444;2023-04-19T10:12:30;102475.88;;;13.17;50.50
48614;BME280;34408;51.426;5.444;2023-04-19T10:15:03;102477.16;;;13.21;50.35
48614;BME280;34408;51.426;5.444;2023-04-19T10:17:33;102477.78;;;13.23;49.44
48614;BME280;34408;51.426;5.444;2023-04-19T10:20:04;102474.03;;;13.24;47.30
48614;BME280;34408;51.426;5.444;2023-04-19T10:22:34;102478.81;;;13.22;46.98
48614;BME280;34408;51.426;5.444;2023-04-19T10:25:13;102471.13;;;13.19;45.79
48614;BME280;34408;51.426;5.444;2023-04-19T10:27:42;102473.81;;;13.19;46.23
48614;BME280;34408;51.426;5.444;2023-04-19T10:30:16;102473.59;;;13.20;46.73
48614;BME280;34408;51.426;5.444;2023-04-19T10:32:51;102466.78;;;13.24;47.91
48614;BME280;34408;51.426;5.444;2023-04-19T10:35:20;102469.06;;;13.27;46.24
48614;BME280;34408;51.426;5.444;2023-04-19T10:38:04;102468.03;;;13.28;45.27
48614;BME280;34408;51.426;5.444;2023-04-19T10:40:56;102464.31;;;13.29;46.03
48614;BME280;34408;51.426;5.444;2023-04-19T10:43:27;102467.84;;;13.30;44.96
48614;BME280;34408;51.426;5.444;2023-04-19T10:45:58;102464.94;;;13.31;45.00
48614;BME280;34408;51.426;5.444;2023-04-19T10:48:39;102460.38;;;13.32;43.46
48614;BME280;34408;51.426;5.444;2023-04-19T10:51:13;102451.25;;;13.33;43.99
48614;BME280;34408;51.426;5.444;2023-04-19T10:53:49;102450.66;;;13.38;44.53
48614;BME280;34408;51.426;5.444;2023-04-19T10:56:19;102449.19;;;13.42;46.02
48614;BME280;34408;51.426;5.444;2023-04-19T10:59:12;102450.47;;;13.46;46.24
48614;BME280;34408;51.426;5.444;2023-04-19T11:01:52;102445.09;;;13.52;46.22
48614;BME280;34408;51.426;5.444;2023-04-19T11:04:23;102434.94;;;13.61;47.71
48614;BME280;34408;51.426;5.444;2023-04-19T11:07:12;102442.63;;;13.64;46.42
48614;BME280;34408;51.426;5.444;2023-04-19T11:09:44;102419.16;;;13.64;44.88
48614;BME280;34408;51.426;5.444;2023-04-19T11:12:13;102439.53;;;13.67;44.92
48614;BME280;34408;51.426;5.444;2023-04-19T11:14:43;102431.22;;;13.68;44.05
48614;BME280;34408;51.426;5.444;2023-04-19T11:17:15;102437.06;;;13.72;46.55
48614;BME280;34408;51.426;5.444;2023-04-19T11:19:52;102432.91;;;13.76;45.95
48614;BME280;34408;51.426;5.444;2023-04-19T11:22:24;102433.53;;;13.78;42.51
48614;BME280;34408;51.426;5.444;2023-04-19T11:24:52;102422.94;;;13.77;42.64
48614;BME280;34408;51.426;5.444;2023-04-19T11:27:20;102432.28;;;13.81;43.86
48614;BME280;34408;51.426;5.444;2023-04-19T11:29:48;102419.22;;;13.84;45.90
48614;BME280;34408;51.426;5.444;2023-04-19T11:32:15;102426.66;;;13.89;43.87
48614;BME280;34408;51.426;5.444;2023-04-19T11:34:46;102422.94;;;13.90;42.83
48614;BME280;34408;51.426;5.444;2023-04-19T11:37:14;102407.56;;;13.84;41.28
48614;BME280;34408;51.426;5.444;2023-04-19T11:39:45;102425.63;;;13.90;40.94
48614;BME280;34408;51.426;5.444;2023-04-19T11:42:19;102416.69;;;13.89;41.12
48614;BME280;34408;51.426;5.444;2023-04-19T11:44:48;102418.56;;;13.89;40.46
48614;BME280;34408;51.426;5.444;2023-04-19T11:47:17;102425.00;;;13.88;39.86
48614;BME280;34408;51.426;5.444;2023-04-19T11:49:46;102406.91;;;13.88;40.28
48614;BME280;34408;51.426;5.444;2023-04-19T11:52:20;102405.25;;;13.87;39.52
48614;BME280;34408;51.426;5.444;2023-04-19T11:54:49;102383.84;;;13.79;39.50
48614;BME280;34408;51.426;5.444;2023-04-19T11:57:26;102393.59;;;13.87;38.08
48614;BME280;34408;51.426;5.444;2023-04-19T12:00:02;102395.28;;;13.88;38.29
48614;BME280;34408;51.426;5.444;2023-04-19T12:02:36;102390.69;;;13.88;38.49
48614;BME280;34408;51.426;5.444;2023-04-19T12:05:11;102387.16;;;13.88;38.48
48614;BME280;34408;51.426;5.444;2023-04-19T12:08:03;102396.94;;;13.89;38.23
48614;BME280;34408;51.426;5.444;2023-04-19T12:10:34;102384.88;;;13.91;38.53
48614;BME280;34408;51.426;5.444;2023-04-19T12:13:15;102385.50;;;13.93;39.20
48614;BME280;34408;51.426;5.444;2023-04-19T12:15:44;102379.47;;;13.91;37.53
48614;BME280;34408;51.426;5.444;2023-04-19T12:18:13;102380.50;;;13.90;39.19
48614;BME280;34408;51.426;5.444;2023-04-19T12:20:45;102369.72;;;13.97;38.31
48614;BME280;34408;51.426;5.444;2023-04-19T12:23:13;102373.88;;;13.99;38.69
48614;BME280;34408;51.426;5.444;2023-04-19T12:25:43;102367.22;;;14.02;39.18
48614;BME280;34408;51.426;5.444;2023-04-19T12:28:12;102371.59;;;14.10;39.32
48614;BME280;34408;51.426;5.444;2023-04-19T12:30:40;102360.34;;;14.13;38.14
48614;BME280;34408;51.426;5.444;2023-04-19T12:33:08;102352.88;;;14.15;35.19
48614;BME280;34408;51.426;5.444;2023-04-19T12:35:36;102364.94;;;14.12;34.99
48614;BME280;34408;51.426;5.444;2023-04-19T12:38:06;102362.84;;;14.14;37.36
48614;BME280;34408;51.426;5.444;2023-04-19T12:40:34;102357.84;;;14.18;37.44
48614;BME280;34408;51.426;5.444;2023-04-19T12:43:04;102357.22;;;14.22;39.48
48614;BME280;34408;51.426;5.444;2023-04-19T12:45:32;102357.44;;;14.27;38.29
48614;BME280;34408;51.426;5.444;2023-04-19T12:48:00;102358.25;;;14.28;34.21
48614;BME280;34408;51.426;5.444;2023-04-19T12:50:28;102351.59;;;14.30;36.51
48614;BME280;34408;51.426;5.444;2023-04-19T12:52:56;102349.94;;;14.36;39.58
48614;BME280;34408;51.426;5.444;2023-04-19T12:55:25;102351.84;;;14.42;40.48
48614;BME280;34408;51.426;5.444;2023-04-19T12:57:53;102345.97;;;14.39;39.37
48614;BME280;34408;51.426;5.444;2023-04-19T13:00:20;102350.56;;;14.51;37.56
48614;BME280;34408;51.426;5.444;2023-04-19T13:02:48;102354.72;;;14.60;39.67
48614;BME280;34408;51.426;5.444;2023-04-19T13:05:16;102336.38;;;14.62;37.91